createdAt,value
2023-10-17T00:01:52.619Z,101071.20
2023-10-17T00:04:34.606Z,101076.60
2023-10-17T00:07:10.619Z,101077.20
2023-10-17T00:09:45.041Z,101080.00
2023-10-17T00:12:36.471Z,101076.20
2023-10-17T00:15:28.448Z,101074.00
2023-10-17T00:18:05.478Z,101071.20
2023-10-17T00:20:40.737Z,101070.60
2023-10-17T00:23:16.498Z,101064.20
2023-10-17T00:25:52.147Z,101065.00
2023-10-17T00:28:28.523Z,101064.00
2023-10-17T00:31:05.635Z,101066.60
2023-10-17T00:33:42.945Z,101063.40
2023-10-17T00:36:20.812Z,101063.40
2023-10-17T00:38:55.430Z,101060.80
2023-10-17T00:41:31.565Z,101063.20
2023-10-17T00:44:06.263Z,101060.80
2023-10-17T00:46:42.547Z,101065.40
2023-10-17T00:49:17.586Z,101066.20
2023-10-17T00:51:53.590Z,101073.20
2023-10-17T00:54:30.767Z,101071.40
2023-10-17T00:57:07.397Z,101073.80
2023-10-17T00:59:50.563Z,101074.60
2023-10-17T01:02:26.565Z,101075.00
2023-10-17T01:05:01.971Z,101069.60
2023-10-17T01:07:38.802Z,101073.20
2023-10-17T01:10:15.500Z,101068.00
2023-10-17T01:12:54.579Z,101066.20
2023-10-17T01:15:30.817Z,101068.40
2023-10-17T01:18:06.621Z,101070.20
2023-10-17T01:20:42.019Z,101077.20
2023-10-17T01:23:16.613Z,101076.80
2023-10-17T01:25:54.802Z,101069.80
2023-10-17T01:28:30.335Z,101075.60
2023-10-17T01:31:06.512Z,101065.80
2023-10-17T01:33:43.840Z,101063.40
2023-10-17T01:36:18.517Z,101068.80
2023-10-17T01:38:53.429Z,101069.60
2023-10-17T01:41:27.891Z,101066.60
2023-10-17T01:44:03.104Z,101060.60
2023-10-17T01:46:39.766Z,101073.00
2023-10-17T01:49:14.585Z,101073.80
2023-10-17T01:51:50.753Z,101079.20
2023-10-17T01:54:25.690Z,101078.00
2023-10-17T01:57:07.889Z,101082.20
2023-10-17T01:59:43.233Z,101077.00
2023-10-17T02:02:17.536Z,101075.40
2023-10-17T02:04:52.484Z,101081.80
2023-10-17T02:07:27.067Z,101079.00
2023-10-17T02:10:02.169Z,101076.20
2023-10-17T02:12:38.109Z,101076.20
2023-10-17T02:15:14.085Z,101073.40
2023-10-17T02:17:50.028Z,101076.00
2023-10-17T02:20:31.184Z,101078.80
2023-10-17T02:23:11.125Z,101075.40
2023-10-17T02:25:45.992Z,101076.40
2023-10-17T02:28:21.603Z,101076.40
2023-10-17T02:30:59.781Z,101074.00
2023-10-17T02:33:34.295Z,101077.00
2023-10-17T02:36:10.207Z,101077.40
2023-10-17T02:38:45.768Z,101075.40
2023-10-17T02:41:24.152Z,101073.60
2023-10-17T02:44:00.015Z,101080.80
2023-10-17T02:46:35.115Z,101084.60
2023-10-17T02:49:09.483Z,101086.00
2023-10-17T02:51:44.815Z,101085.20
2023-10-17T02:54:20.009Z,101082.00
2023-10-17T02:56:54.819Z,101081.80
2023-10-17T02:59:33.749Z,101074.40
2023-10-17T03:02:08.429Z,101068.60
2023-10-17T03:04:44.580Z,101076.20
2023-10-17T03:07:18.974Z,101082.60
2023-10-17T03:09:53.232Z,101080.60
2023-10-17T03:12:30.986Z,101087.20
2023-10-17T03:15:21.092Z,101088.20
2023-10-17T03:17:56.213Z,101094.20
2023-10-17T03:20:42.573Z,101096.00
2023-10-17T03:23:17.138Z,101102.20
2023-10-17T03:25:52.244Z,101101.60
2023-10-17T03:28:28.988Z,101103.60
2023-10-17T03:31:11.779Z,101100.20
2023-10-17T03:33:51.667Z,101101.20
2023-10-17T03:36:42.807Z,101097.80
2023-10-17T03:39:22.066Z,101097.40
2023-10-17T03:41:58.985Z,101098.60
2023-10-17T03:44:40.184Z,101100.80
2023-10-17T03:47:16.537Z,101098.60
2023-10-17T03:49:56.907Z,101093.60
2023-10-17T03:52:31.491Z,101099.20
2023-10-17T03:55:11.441Z,101102.40
2023-10-17T03:57:54.024Z,101106.80
2023-10-17T04:00:39.299Z,101098.40
2023-10-17T04:03:20.730Z,101101.00
2023-10-17T04:06:03.379Z,101097.80
2023-10-17T04:08:39.475Z,101101.00
2023-10-17T04:11:19.214Z,101102.20
2023-10-17T04:13:57.829Z,101103.80
2023-10-17T04:16:35.565Z,101098.40
2023-10-17T04:19:17.885Z,101093.20
2023-10-17T04:22:14.323Z,101091.80
2023-10-17T04:24:52.968Z,101089.60
2023-10-17T04:27:32.659Z,101088.80
2023-10-17T04:30:16.243Z,101091.40
2023-10-17T04:32:54.205Z,101093.20
2023-10-17T04:35:29.508Z,101094.20
2023-10-17T04:38:17.884Z,101096.60
2023-10-17T04:41:13.849Z,101096.20
2023-10-17T04:43:55.396Z,101105.40
2023-10-17T04:46:31.436Z,101096.40
2023-10-17T04:49:10.825Z,101095.80
2023-10-17T04:51:45.857Z,101097.40
2023-10-17T04:54:41.229Z,101097.80
2023-10-17T04:57:18.104Z,101110.80
2023-10-17T05:00:10.903Z,101107.40
2023-10-17T05:02:56.153Z,101108.40
2023-10-17T05:05:47.015Z,101110.80
2023-10-17T05:08:22.878Z,101114.20
2023-10-17T05:11:17.017Z,101115.20
2023-10-17T05:14:09.387Z,101115.00
2023-10-17T05:17:01.017Z,101113.00
2023-10-17T05:19:52.720Z,101119.20
2023-10-17T05:22:44.629Z,101121.20
2023-10-17T05:25:36.266Z,101128.60
2023-10-17T05:28:28.840Z,101131.60
2023-10-17T05:31:29.846Z,101129.20
2023-10-17T05:34:21.973Z,101130.40
2023-10-17T05:37:13.625Z,101133.60
2023-10-17T05:40:05.475Z,101135.20
2023-10-17T05:42:56.945Z,101135.20
2023-10-17T05:45:48.772Z,101134.80
2023-10-17T05:48:41.135Z,101138.60
2023-10-17T05:51:32.996Z,101133.20
2023-10-17T05:54:55.981Z,101127.80
2023-10-17T05:57:36.494Z,101126.60
2023-10-17T06:00:32.311Z,101136.20
2023-10-17T06:03:24.525Z,101142.00
2023-10-17T06:06:29.314Z,101137.80
2023-10-17T06:09:23.975Z,101141.80
2023-10-17T06:12:16.463Z,101151.40
2023-10-17T06:15:08.383Z,101154.60
2023-10-17T06:17:43.932Z,101149.20
2023-10-17T06:20:21.068Z,101145.80
2023-10-17T06:23:27.750Z,101146.60
2023-10-17T06:26:06.132Z,101149.20
2023-10-17T06:28:47.866Z,101149.80
2023-10-17T06:31:56.065Z,101147.20
2023-10-17T06:34:33.110Z,101142.60
2023-10-17T06:37:08.855Z,101146.40
2023-10-17T06:39:48.146Z,101150.20
2023-10-17T06:42:31.532Z,101147.00
2023-10-17T06:45:11.350Z,101147.20
2023-10-17T06:47:49.898Z,101149.40
2023-10-17T06:50:38.254Z,101149.00
2023-10-17T06:53:16.718Z,101148.60
2023-10-17T06:56:00.343Z,101153.40
2023-10-17T06:58:36.922Z,101153.40
2023-10-17T07:01:29.215Z,101157.20
2023-10-17T07:04:04.863Z,101155.80
2023-10-17T07:06:41.959Z,101161.00
2023-10-17T07:09:20.788Z,101159.40
2023-10-17T07:11:55.682Z,101163.00
2023-10-17T07:14:30.494Z,101166.00
2023-10-17T07:17:18.784Z,101167.00
2023-10-17T07:20:00.090Z,101160.40
2023-10-17T07:22:37.819Z,101155.60
2023-10-17T07:25:20.397Z,101154.20
2023-10-17T07:27:55.060Z,101151.40
2023-10-17T07:30:36.687Z,101155.40
2023-10-17T07:33:18.567Z,101149.80
2023-10-17T07:35:59.887Z,101154.80
2023-10-17T07:38:34.715Z,101154.40
2023-10-17T07:41:15.466Z,101144.00
2023-10-17T07:43:59.889Z,101144.00
2023-10-17T07:46:36.562Z,101147.40
2023-10-17T07:49:11.608Z,101143.20
2023-10-17T07:51:46.314Z,101141.60
2023-10-17T07:54:21.295Z,101140.40
2023-10-17T07:56:56.903Z,101141.00
2023-10-17T07:59:33.548Z,101136.60
2023-10-17T08:02:20.561Z,101137.40
2023-10-17T08:04:55.540Z,101136.80
2023-10-17T08:07:31.198Z,101142.00
2023-10-17T08:10:11.672Z,101143.00
2023-10-17T08:12:47.195Z,101148.00
2023-10-17T08:15:24.096Z,101139.80
2023-10-17T08:18:00.066Z,101144.00
2023-10-17T08:20:56.239Z,101140.80
2023-10-17T08:23:31.863Z,101138.20
2023-10-17T08:26:12.014Z,101136.80
2023-10-17T08:28:52.132Z,101140.40
2023-10-17T08:31:28.821Z,101135.80
2023-10-17T08:34:13.668Z,101136.80
2023-10-17T08:36:54.949Z,101133.60
2023-10-17T08:39:54.066Z,101126.60
2023-10-17T08:42:36.726Z,101130.00
2023-10-17T08:45:16.867Z,101128.20
2023-10-17T08:47:53.756Z,101127.20
2023-10-17T08:50:32.066Z,101130.00
2023-10-17T08:53:09.737Z,101126.60
2023-10-17T08:55:45.397Z,101127.00
2023-10-17T08:58:25.830Z,101126.40
2023-10-17T09:01:09.095Z,101113.80
2023-10-17T09:03:48.302Z,101111.20
2023-10-17T09:06:33.825Z,101106.80
2023-10-17T09:09:23.921Z,101103.80
2023-10-17T09:12:12.793Z,101098.60
2023-10-17T09:14:53.570Z,101103.40
2023-10-17T09:17:32.056Z,101101.60
2023-10-17T09:20:12.964Z,101094.40
2023-10-17T09:22:49.579Z,101099.60
2023-10-17T09:25:27.563Z,101092.20
2023-10-17T09:28:03.277Z,101093.20
2023-10-17T09:30:38.364Z,101095.40
2023-10-17T09:33:33.192Z,101097.80
2023-10-17T09:36:10.017Z,101086.00
2023-10-17T09:38:46.704Z,101084.20
2023-10-17T09:41:23.574Z,101082.60
2023-10-17T09:44:00.282Z,101083.60
2023-10-17T09:46:38.024Z,101083.40
2023-10-17T09:49:13.638Z,101079.60
2023-10-17T09:51:54.987Z,101078.80
2023-10-17T09:54:43.059Z,101076.60
2023-10-17T09:57:27.203Z,101072.60
2023-10-17T10:00:20.023Z,101063.40
2023-10-17T10:03:14.694Z,101056.60
2023-10-17T10:05:56.978Z,101054.00
2023-10-17T10:08:37.952Z,101054.20
2023-10-17T10:11:14.976Z,101050.20
2023-10-17T10:14:13.138Z,101047.40
2023-10-17T10:17:00.118Z,101036.60
2023-10-17T10:20:11.298Z,101032.20
2023-10-17T10:22:59.033Z,101035.20
2023-10-17T10:25:36.994Z,101034.40
2023-10-17T10:28:34.066Z,101036.00
2023-10-17T10:31:45.141Z,101034.60
2023-10-17T10:34:23.036Z,101026.20
2023-10-17T10:37:05.319Z,101017.20
2023-10-17T10:39:42.030Z,101011.00
2023-10-17T10:42:20.956Z,101008.60
2023-10-17T10:44:58.218Z,100995.00
2023-10-17T10:47:40.274Z,100994.40
2023-10-17T10:50:19.992Z,100991.00
2023-10-17T10:59:37.087Z,100981.80
2023-10-17T11:02:14.956Z,100970.00
2023-10-17T11:04:57.688Z,100967.80
2023-10-17T11:07:33.023Z,100965.60
2023-10-17T11:10:09.346Z,100967.00
2023-10-17T11:12:53.793Z,100962.20
2023-10-17T11:15:33.852Z,100963.80
2023-10-17T11:18:13.569Z,100966.20
2023-10-17T11:20:55.879Z,100964.00
2023-10-17T11:23:33.865Z,100958.80
2023-10-17T11:26:26.660Z,100954.60
2023-10-17T11:29:11.609Z,100949.40
2023-10-17T11:31:49.189Z,100941.60
2023-10-17T11:34:34.843Z,100942.00
2023-10-17T11:37:13.923Z,100936.20
2023-10-17T11:39:52.781Z,100933.00
2023-10-17T11:42:35.695Z,100926.60
2023-10-17T11:45:34.808Z,100922.40
2023-10-17T11:48:29.077Z,100914.80
2023-10-17T11:51:18.491Z,100914.60
2023-10-17T11:54:30.368Z,100916.80
2023-10-17T11:57:17.761Z,100921.00
2023-10-17T12:00:21.116Z,100926.40
2023-10-17T12:02:56.943Z,100929.20
2023-10-17T12:05:36.684Z,100930.40
2023-10-17T12:08:11.813Z,100928.20
2023-10-17T12:10:46.920Z,100921.60
2023-10-17T12:13:22.302Z,100908.00
2023-10-17T12:16:04.011Z,100903.60
2023-10-17T12:18:39.576Z,100901.60
2023-10-17T12:21:15.825Z,100901.00
2023-10-17T12:23:50.878Z,100899.20
2023-10-17T12:26:28.208Z,100897.60
2023-10-17T12:29:02.923Z,100900.00
2023-10-17T12:31:37.864Z,100905.20
2023-10-17T12:34:17.459Z,100910.00
2023-10-17T12:36:53.260Z,100902.60
2023-10-17T12:39:33.311Z,100908.00
2023-10-17T12:42:09.267Z,100907.20
2023-10-17T12:44:43.916Z,100908.60
2023-10-17T12:47:21.991Z,100909.40
2023-10-17T12:49:56.723Z,100901.40
2023-10-17T12:52:31.809Z,100902.80
2023-10-17T12:55:08.654Z,100900.60
2023-10-17T12:57:45.176Z,100895.20
2023-10-17T13:00:27.500Z,100892.00
2023-10-17T13:03:02.694Z,100892.20
2023-10-17T13:05:38.689Z,100893.20
2023-10-17T13:08:16.010Z,100894.40
2023-10-17T13:10:51.944Z,100894.40
2023-10-17T13:13:26.960Z,100895.40
2023-10-17T13:16:02.109Z,100892.20
2023-10-17T13:18:42.405Z,100892.80
2023-10-17T13:21:17.197Z,100896.80
2023-10-17T13:23:51.992Z,100895.80
2023-10-17T13:26:26.797Z,100897.40
2023-10-17T13:29:01.556Z,100892.20
2023-10-17T13:31:38.502Z,100889.00
2023-10-17T13:34:13.716Z,100884.40
2023-10-17T13:36:48.764Z,100888.40
2023-10-17T13:39:25.886Z,100883.60
2023-10-17T13:42:03.954Z,100879.40
2023-10-17T13:44:38.487Z,100876.20
2023-10-17T13:47:13.176Z,100877.80
2023-10-17T13:49:48.372Z,100872.40
2023-10-17T13:52:22.969Z,100875.20
2023-10-17T13:54:57.664Z,100874.40
2023-10-17T13:57:33.149Z,100872.40
2023-10-17T14:00:10.977Z,100873.20
2023-10-17T14:02:45.489Z,100869.20
2023-10-17T14:05:22.377Z,100869.60
2023-10-17T14:07:57.563Z,100866.00
2023-10-17T14:10:33.933Z,100866.60
2023-10-17T14:13:09.628Z,100866.20
2023-10-17T14:15:45.030Z,100864.40
2023-10-17T14:18:31.564Z,100861.20
2023-10-17T14:21:18.340Z,100864.80
2023-10-17T14:24:00.335Z,100873.80
2023-10-17T14:26:35.001Z,100871.40
2023-10-17T14:29:11.619Z,100865.80
2023-10-17T14:31:48.026Z,100871.60
2023-10-17T14:34:26.801Z,100869.20
2023-10-17T14:37:01.569Z,100869.60
2023-10-17T14:39:38.281Z,100866.80
2023-10-17T14:42:16.165Z,100860.80
2023-10-17T14:44:53.875Z,100867.20
2023-10-17T14:47:29.045Z,100866.00
2023-10-17T14:50:09.430Z,100865.80
2023-10-17T14:52:44.221Z,100866.60
2023-10-17T14:55:25.258Z,100868.00
2023-10-17T14:58:00.980Z,100867.20
2023-10-17T15:00:38.775Z,100860.00
2023-10-17T15:03:13.367Z,100866.80
2023-10-17T15:05:48.030Z,100869.60
2023-10-17T15:08:22.599Z,100863.00
2023-10-17T15:10:57.249Z,100864.00
2023-10-17T15:13:32.481Z,100855.80
2023-10-17T15:16:17.638Z,100854.80
2023-10-17T15:18:53.542Z,100857.20
2023-10-17T15:21:29.008Z,100858.20
2023-10-17T15:24:03.874Z,100855.00
2023-10-17T15:26:39.033Z,100852.20
2023-10-17T15:29:14.252Z,100854.00
2023-10-17T15:31:54.193Z,100850.80
2023-10-17T15:34:31.032Z,100853.20
2023-10-17T15:37:07.563Z,100852.60
2023-10-17T15:39:42.157Z,100863.00
2023-10-17T15:42:19.338Z,100868.60
2023-10-17T15:44:55.845Z,100866.80
2023-10-17T15:47:34.548Z,100863.80
2023-10-17T15:50:18.503Z,100856.80
2023-10-17T15:52:55.587Z,100859.00
2023-10-17T15:55:34.197Z,100860.00
2023-10-17T15:58:09.826Z,100854.40
2023-10-17T16:00:44.864Z,100856.60
2023-10-17T16:03:20.780Z,100865.80
2023-10-17T16:05:57.394Z,100870.80
2023-10-17T16:08:33.819Z,100872.00
2023-10-17T16:11:09.253Z,100876.80
2023-10-17T16:13:44.072Z,100884.40
2023-10-17T16:16:21.415Z,100893.20
2023-10-17T16:18:56.415Z,100896.80
2023-10-17T16:21:31.191Z,100896.60
2023-10-17T16:24:08.198Z,100897.60
2023-10-17T16:26:44.916Z,100903.40
2023-10-17T16:29:19.585Z,100903.00
2023-10-17T16:31:55.904Z,100900.00
2023-10-17T16:34:30.382Z,100905.00
2023-10-17T16:37:05.162Z,100913.00
2023-10-17T16:39:39.800Z,100912.60
2023-10-17T16:42:14.247Z,100908.80
2023-10-17T16:44:48.962Z,100908.00
2023-10-17T16:47:26.885Z,100908.20
2023-10-17T16:50:02.120Z,100910.80
2023-10-17T16:52:37.966Z,100909.40
2023-10-17T16:55:14.488Z,100908.60
2023-10-17T16:57:49.210Z,100899.80
2023-10-17T17:00:28.915Z,100891.80
2023-10-17T17:03:03.548Z,100896.40
2023-10-17T17:05:40.084Z,100909.20
2023-10-17T17:08:16.082Z,100904.20
2023-10-17T17:10:50.523Z,100902.60
2023-10-17T17:13:25.182Z,100900.60
2023-10-17T17:16:00.781Z,100907.60
2023-10-17T17:18:47.325Z,100907.00
2023-10-17T17:21:24.149Z,100905.40
2023-10-17T17:23:58.656Z,100898.80
2023-10-17T17:26:33.339Z,100900.40
2023-10-17T17:29:08.086Z,100904.80
2023-10-17T17:31:44.084Z,100908.80
2023-10-17T17:34:18.852Z,100909.40
2023-10-17T17:36:54.039Z,100907.60
2023-10-17T17:39:28.962Z,100907.80
2023-10-17T17:42:03.882Z,100898.20
2023-10-17T17:44:39.257Z,100899.20
2023-10-17T17:47:13.746Z,100900.80
2023-10-17T17:49:49.603Z,100899.60
2023-10-17T17:52:24.954Z,100899.20
2023-10-17T17:55:01.451Z,100892.40
2023-10-17T17:57:37.158Z,100898.00
2023-10-17T18:00:17.003Z,100892.80
2023-10-17T18:02:51.934Z,100892.60
2023-10-17T18:05:27.398Z,100891.00
2023-10-17T18:08:02.179Z,100888.60
2023-10-17T18:10:40.807Z,100888.40
2023-10-17T18:13:15.520Z,100890.20
2023-10-17T18:15:51.277Z,100886.20
2023-10-17T18:18:26.137Z,100882.80
2023-10-17T18:21:12.459Z,100873.40
2023-10-17T18:23:52.020Z,100874.00
2023-10-17T18:26:26.916Z,100878.20
2023-10-17T18:29:01.670Z,100872.40
2023-10-17T18:31:40.374Z,100876.60
2023-10-17T18:34:15.377Z,100870.40
2023-10-17T18:36:50.496Z,100867.60
2023-10-17T18:39:25.250Z,100866.80
2023-10-17T18:41:59.935Z,100862.40
2023-10-17T18:44:35.474Z,100864.20
2023-10-17T18:47:12.287Z,100860.40
2023-10-17T18:49:48.905Z,100864.40
2023-10-17T18:52:24.457Z,100863.20
2023-10-17T18:54:59.583Z,100879.40
2023-10-17T18:57:34.617Z,100886.80
2023-10-17T19:00:19.575Z,100880.40
2023-10-17T19:02:55.342Z,100872.40
2023-10-17T19:05:30.132Z,100877.40
2023-10-17T19:08:05.642Z,100883.00
2023-10-17T19:10:40.761Z,100888.00
2023-10-17T19:13:16.456Z,100893.00
2023-10-17T19:15:51.665Z,100891.80
2023-10-17T19:18:26.793Z,100892.60
2023-10-17T19:21:03.315Z,100890.00
2023-10-17T19:23:38.257Z,100892.20
2023-10-17T19:26:17.042Z,100889.20
2023-10-17T19:28:52.342Z,100889.80
2023-10-17T19:31:27.429Z,100879.80
2023-10-17T19:34:02.677Z,100880.00
2023-10-17T19:36:38.597Z,100879.60
2023-10-17T19:39:16.975Z,100878.40
2023-10-17T19:41:52.690Z,100881.60
2023-10-17T19:44:27.499Z,100873.80
2023-10-17T19:47:04.291Z,100866.20
2023-10-17T19:49:39.085Z,100861.60
2023-10-17T19:52:13.794Z,100854.00
2023-10-17T19:54:51.481Z,100854.00
2023-10-17T19:57:30.229Z,100864.60
2023-10-17T20:00:10.366Z,100864.60
2023-10-17T20:02:46.199Z,100855.00
2023-10-17T20:05:21.417Z,100853.80
2023-10-17T20:07:56.412Z,100848.60
2023-10-17T20:10:31.679Z,100851.80
2023-10-17T20:13:07.024Z,100854.60
2023-10-17T20:15:45.048Z,100861.40
2023-10-17T20:18:20.532Z,100865.40
2023-10-17T20:20:55.815Z,100864.00
2023-10-17T20:23:32.235Z,100868.60
2023-10-17T20:26:06.953Z,100861.00
2023-10-17T20:28:41.582Z,100864.80
2023-10-17T20:31:27.590Z,100861.80
2023-10-17T20:34:03.044Z,100854.80
2023-10-17T20:36:38.471Z,100851.60
2023-10-17T20:39:12.920Z,100847.80
2023-10-17T20:41:47.355Z,100850.80
2023-10-17T20:44:23.101Z,100847.20
2023-10-17T20:46:57.756Z,100850.40
2023-10-17T20:49:32.455Z,100846.00
2023-10-17T20:52:11.649Z,100850.60
2023-10-17T20:54:49.487Z,100853.40
2023-10-17T20:57:26.483Z,100848.60
2023-10-17T21:00:03.496Z,100848.60
2023-10-17T21:02:40.512Z,100847.20
2023-10-17T21:05:17.437Z,100843.00
2023-10-17T21:07:55.471Z,100850.80
2023-10-17T21:10:38.448Z,100853.60
2023-10-17T21:13:17.448Z,100835.80
2023-10-17T21:15:55.681Z,100830.80
2023-10-17T21:18:32.501Z,100824.20
2023-10-17T21:21:10.461Z,100828.20
2023-10-17T21:23:49.498Z,100828.80
2023-10-17T21:26:27.499Z,100820.60
2023-10-17T21:29:06.122Z,100820.00
2023-10-17T21:31:43.254Z,100832.60
2023-10-17T21:34:22.491Z,100825.40
2023-10-17T21:37:00.533Z,100833.60
2023-10-17T21:39:38.510Z,100835.00
2023-10-17T21:42:15.418Z,100833.20
2023-10-17T21:44:53.426Z,100837.20
2023-10-17T21:47:30.467Z,100833.60
2023-10-17T21:50:10.405Z,100826.60
2023-10-17T21:59:37.342Z,100812.20
2023-10-17T22:02:12.257Z,100817.80
2023-10-17T22:04:47.254Z,100817.80
2023-10-17T22:07:21.702Z,100818.20
2023-10-17T22:09:56.351Z,100820.20
2023-10-17T22:12:34.607Z,100822.80
2023-10-17T22:15:14.147Z,100814.00
2023-10-17T22:17:49.160Z,100813.80
2023-10-17T22:20:23.969Z,100814.40
2023-10-17T22:22:58.966Z,100814.40
2023-10-17T22:25:33.660Z,100817.60
2023-10-17T22:28:11.100Z,100819.00
2023-10-17T22:30:46.332Z,100815.20
2023-10-17T22:33:20.661Z,100806.80
2023-10-17T22:35:55.876Z,100809.40
2023-10-17T22:38:31.033Z,100816.00
2023-10-17T22:41:06.221Z,100813.20
2023-10-17T22:43:41.107Z,100819.60
2023-10-17T22:46:16.547Z,100814.60
2023-10-17T22:48:51.036Z,100814.80
2023-10-17T22:51:26.992Z,100816.60
2023-10-17T22:54:04.664Z,100818.20
2023-10-17T22:56:39.427Z,100813.80
2023-10-17T22:59:14.124Z,100816.40
2023-10-17T23:01:48.852Z,100808.20
2023-10-17T23:04:23.639Z,100811.40
2023-10-17T23:06:58.003Z,100810.20
2023-10-17T23:09:32.795Z,100810.20
2023-10-17T23:12:07.821Z,100809.80
2023-10-17T23:14:43.280Z,100812.20
2023-10-17T23:17:17.825Z,100815.00
2023-10-17T23:19:52.244Z,100815.00
2023-10-17T23:22:27.865Z,100814.60
2023-10-17T23:25:02.363Z,100809.80
2023-10-17T23:27:37.702Z,100809.60
2023-10-17T23:30:17.177Z,100807.40
2023-10-17T23:32:52.748Z,100811.20
2023-10-17T23:35:29.094Z,100807.80
2023-10-17T23:38:03.626Z,100814.40
2023-10-17T23:40:37.783Z,100821.40
2023-10-17T23:43:14.513Z,100822.80
2023-10-17T23:45:52.952Z,100817.20
2023-10-17T23:48:28.357Z,100812.40
2023-10-17T23:51:03.847Z,100812.20
2023-10-17T23:53:39.971Z,100809.60
2023-10-17T23:56:14.877Z,100799.60
2023-10-17T23:58:49.273Z,100801.40
